createdAt,value
2022-08-17T00:01:24.187Z,20.70
2022-08-17T00:05:31.543Z,20.71
2022-08-17T00:09:33.601Z,20.72
2022-08-17T00:13:41.682Z,20.70
2022-08-17T00:17:47.177Z,20.69
2022-08-17T00:22:31.451Z,20.70
2022-08-17T00:26:14.294Z,20.67
2022-08-17T00:30:16.069Z,20.63
2022-08-17T00:34:18.017Z,20.62
2022-08-17T00:38:20.270Z,20.61
2022-08-17T00:42:21.877Z,20.56
2022-08-17T00:46:30.388Z,20.55
2022-08-17T00:50:32.458Z,20.55
2022-08-17T00:54:41.833Z,20.57
2022-08-17T00:58:44.651Z,20.58
2022-08-17T01:02:47.824Z,20.56
2022-08-17T01:06:50.963Z,20.51
2022-08-17T01:10:57.254Z,20.50
2022-08-17T01:15:05.906Z,20.49
2022-08-17T01:19:17.028Z,20.47
2022-08-17T01:23:21.351Z,20.47
2022-08-17T01:27:24.477Z,20.46
2022-08-17T01:31:30.627Z,20.47
2022-08-17T01:35:32.258Z,20.46
2022-08-17T01:39:42.237Z,20.45
2022-08-17T01:43:49.723Z,20.43
2022-08-17T01:47:52.964Z,20.46
2022-08-17T01:51:55.189Z,20.47
2022-08-17T01:56:08.518Z,20.45
2022-08-17T02:00:10.875Z,20.44
2022-08-17T02:04:12.822Z,20.47
2022-08-17T02:08:20.026Z,20.52
2022-08-17T02:12:39.340Z,20.54
2022-08-17T02:16:41.913Z,20.57
2022-08-17T02:20:43.819Z,20.65
2022-08-17T02:24:58.798Z,20.69
2022-08-17T02:29:04.166Z,20.67
2022-08-17T02:33:09.399Z,20.58
2022-08-17T02:37:11.136Z,20.48
2022-08-17T02:41:13.034Z,20.38
2022-08-17T02:45:20.812Z,20.28
2022-08-17T02:49:22.375Z,20.15
2022-08-17T02:53:23.995Z,20.09
2022-08-17T02:57:27.243Z,20.03
2022-08-17T03:01:29.103Z,20.01
2022-08-17T03:05:33.869Z,19.96
2022-08-17T03:09:35.559Z,19.90
2022-08-17T03:13:37.412Z,19.86
2022-08-17T03:17:39.254Z,19.83
2022-08-17T03:21:40.910Z,19.80
2022-08-17T03:25:44.100Z,19.74
2022-08-17T03:29:45.967Z,19.69
2022-08-17T03:33:48.173Z,19.66
2022-08-17T03:37:56.961Z,19.60
2022-08-17T03:42:32.278Z,19.63
2022-08-17T03:46:52.923Z,19.65
2022-08-17T03:51:15.313Z,19.65
2022-08-17T03:55:36.329Z,19.59
2022-08-17T03:59:39.462Z,19.50
2022-08-17T04:03:42.603Z,19.45
2022-08-17T04:07:44.275Z,19.43
2022-08-17T04:11:45.856Z,19.43
2022-08-17T04:15:49.170Z,19.41
2022-08-17T04:19:50.933Z,19.36
2022-08-17T04:23:52.752Z,19.34
2022-08-17T04:27:55.034Z,19.33
2022-08-17T04:31:58.075Z,19.29
2022-08-17T04:36:02.119Z,19.24
2022-08-17T04:40:23.034Z,19.19
2022-08-17T04:44:36.950Z,19.11
2022-08-17T04:48:43.515Z,19.04
2022-08-17T04:52:46.384Z,19.03
2022-08-17T04:56:48.290Z,19.04
2022-08-17T05:00:50.168Z,19.06
2022-08-17T05:04:51.850Z,19.03
2022-08-17T05:08:54.845Z,19.04
2022-08-17T05:13:11.811Z,19.04
2022-08-17T05:17:13.553Z,19.04
2022-08-17T05:21:15.899Z,19.07
2022-08-17T05:25:24.957Z,19.09
2022-08-17T05:29:35.289Z,19.12
2022-08-17T05:33:44.291Z,19.17
2022-08-17T05:37:46.938Z,19.16
2022-08-17T05:41:48.649Z,19.17
2022-08-17T05:46:03.370Z,19.14
2022-08-17T05:50:09.435Z,19.10
2022-08-17T05:54:26.609Z,19.06
2022-08-17T05:58:49.479Z,19.03
2022-08-17T06:03:24.317Z,19.01
2022-08-17T06:07:37.793Z,19.01
2022-08-17T06:11:47.872Z,19.03
2022-08-17T06:16:04.702Z,19.04
2022-08-17T06:20:36.016Z,19.09
2022-08-17T06:24:58.993Z,19.06
2022-08-17T06:29:04.350Z,19.03
2022-08-17T06:33:21.169Z,19.04
2022-08-17T06:37:48.818Z,19.04
2022-08-17T06:41:59.244Z,19.08
2022-08-17T06:46:10.891Z,19.11
2022-08-17T06:50:22.091Z,19.12
2022-08-17T06:54:39.871Z,19.17
2022-08-17T06:58:44.199Z,19.20
2022-08-17T07:03:10.438Z,19.21
2022-08-17T07:07:31.733Z,19.27
2022-08-17T07:11:50.476Z,19.31
2022-08-17T07:15:57.146Z,19.30
2022-08-17T07:20:09.346Z,19.28
2022-08-17T07:24:28.134Z,19.26
2022-08-17T07:28:33.805Z,19.26
2022-08-17T07:32:57.816Z,19.26
2022-08-17T07:37:05.537Z,19.27
2022-08-17T07:41:10.680Z,19.32
2022-08-17T07:45:34.476Z,19.33
2022-08-17T07:49:42.506Z,19.37
2022-08-17T07:53:45.245Z,19.42
2022-08-17T07:57:55.668Z,19.46
2022-08-17T08:02:08.069Z,19.50
2022-08-17T08:06:24.398Z,19.60
2022-08-17T08:10:27.603Z,19.74
2022-08-17T08:14:38.357Z,19.83
2022-08-17T08:18:54.253Z,19.89
2022-08-17T08:23:03.442Z,19.94
2022-08-17T08:27:37.413Z,20.03
2022-08-17T08:31:57.779Z,20.17
2022-08-17T08:36:08.236Z,20.27
2022-08-17T08:40:39.235Z,20.36
2022-08-17T08:45:01.302Z,20.38
2022-08-17T08:49:45.173Z,20.30
2022-08-17T08:54:11.128Z,20.20
2022-08-17T08:58:41.840Z,20.20
2022-08-17T09:02:43.991Z,20.21
2022-08-17T09:06:57.232Z,20.24
2022-08-17T09:11:08.279Z,20.20
2022-08-17T09:15:28.507Z,20.15
2022-08-17T09:19:57.122Z,20.07
2022-08-17T09:24:02.403Z,20.00
2022-08-17T09:28:14.200Z,20.01
2022-08-17T09:32:42.203Z,20.06
2022-08-17T09:36:51.849Z,20.14
2022-08-17T09:41:02.975Z,20.20
2022-08-17T09:45:24.088Z,20.28
2022-08-17T09:49:33.681Z,20.44
2022-08-17T09:53:37.222Z,20.57
2022-08-17T09:57:59.027Z,20.64
2022-08-17T10:02:28.475Z,20.67
2022-08-17T10:06:37.830Z,20.66
2022-08-17T10:10:56.435Z,20.66
2022-08-17T10:15:27.574Z,20.59
2022-08-17T10:19:39.727Z,20.54
2022-08-17T10:24:09.155Z,20.50
2022-08-17T10:28:20.246Z,20.46
2022-08-17T10:32:33.513Z,20.46
2022-08-17T10:36:46.197Z,20.44
2022-08-17T10:41:01.219Z,20.44
2022-08-17T10:45:17.442Z,20.44
2022-08-17T10:49:19.038Z,20.48
2022-08-17T10:53:32.641Z,20.50
2022-08-17T10:57:38.848Z,20.52
2022-08-17T11:01:43.363Z,20.54
2022-08-17T11:05:54.094Z,20.59
2022-08-17T11:10:17.886Z,20.58
2022-08-17T11:15:08.424Z,20.56
2022-08-17T11:19:35.700Z,20.51
2022-08-17T11:24:08.386Z,20.55
2022-08-17T11:28:22.038Z,20.58
2022-08-17T11:32:47.079Z,20.61
2022-08-17T11:37:01.989Z,20.55
2022-08-17T11:41:03.602Z,20.50
2022-08-17T11:45:31.657Z,20.46
2022-08-17T11:50:17.325Z,20.44
2022-08-17T11:54:33.731Z,20.41
2022-08-17T11:58:37.861Z,20.40
2022-08-17T12:02:48.164Z,20.40
2022-08-17T12:07:13.254Z,20.40
2022-08-17T12:11:58.789Z,20.46
2022-08-17T12:15:49.655Z,20.53
2022-08-17T12:19:53.052Z,20.54
2022-08-17T12:24:14.991Z,20.53
2022-08-17T12:28:36.583Z,20.46
2022-08-17T12:32:40.559Z,20.41
2022-08-17T12:36:42.416Z,20.37
2022-08-17T12:40:54.662Z,20.34
2022-08-17T12:45:00.154Z,20.35
2022-08-17T12:49:35.635Z,20.31
2022-08-17T12:53:37.342Z,20.23
2022-08-17T12:57:38.921Z,20.21
2022-08-17T13:01:42.246Z,20.17
2022-08-17T13:05:54.483Z,20.13
2022-08-17T13:09:56.202Z,20.07
2022-08-17T13:14:09.507Z,20.01
2022-08-17T13:18:33.612Z,19.95
2022-08-17T13:22:35.318Z,19.94
2022-08-17T13:26:49.116Z,19.93
2022-08-17T13:30:50.727Z,19.93
2022-08-17T13:35:11.931Z,19.92
2022-08-17T13:39:22.904Z,19.95
2022-08-17T13:43:45.301Z,19.96
2022-08-17T13:47:47.095Z,19.96
2022-08-17T13:51:51.510Z,20.00
2022-08-17T13:56:37.531Z,19.99
2022-08-17T14:00:36.765Z,19.98
2022-08-17T14:04:41.419Z,20.00
2022-08-17T14:08:43.045Z,19.98
2022-08-17T14:12:46.828Z,20.00
2022-08-17T14:16:50.222Z,20.02
2022-08-17T14:20:53.288Z,20.05
2022-08-17T14:24:54.923Z,20.06
2022-08-17T14:28:57.134Z,20.06
2022-08-17T14:32:59.537Z,20.09
2022-08-17T14:37:01.144Z,20.08
2022-08-17T14:41:03.048Z,20.08
2022-08-17T14:45:07.022Z,20.11
2022-08-17T14:49:30.265Z,20.14
2022-08-17T14:53:32.156Z,20.16
2022-08-17T14:57:34.627Z,20.15
2022-08-17T15:01:36.827Z,20.14
2022-08-17T15:05:39.497Z,20.19
2022-08-17T15:09:41.108Z,20.23
2022-08-17T15:13:53.107Z,20.23
2022-08-17T15:17:55.093Z,20.31
2022-08-17T15:21:57.021Z,20.40
2022-08-17T15:25:58.829Z,20.44
2022-08-17T15:30:01.907Z,20.52
2022-08-17T15:34:05.302Z,20.59
2022-08-17T15:38:12.345Z,20.62
2022-08-17T15:42:14.680Z,20.60
2022-08-17T15:46:20.378Z,20.54
2022-08-17T15:50:22.120Z,20.49
2022-08-17T15:54:23.776Z,20.39
2022-08-17T15:58:29.849Z,20.34
2022-08-17T16:03:44.837Z,20.30
2022-08-17T16:06:57.577Z,20.29
2022-08-17T16:10:59.633Z,20.27
2022-08-17T16:15:02.507Z,20.25
2022-08-17T16:19:04.129Z,20.19
2022-08-17T16:23:05.865Z,20.17
2022-08-17T16:27:12.523Z,20.13
2022-08-17T16:31:14.582Z,20.09
2022-08-17T16:35:16.970Z,20.08
2022-08-17T16:39:18.650Z,20.03
2022-08-17T16:43:20.300Z,19.99
2022-08-17T16:47:22.597Z,19.96
2022-08-17T16:51:24.776Z,19.96
2022-08-17T16:55:26.579Z,19.93
2022-08-17T16:59:30.446Z,19.92
2022-08-17T17:03:34.733Z,19.92
2022-08-17T17:07:40.222Z,19.95
2022-08-17T17:11:47.739Z,19.93
2022-08-17T17:15:58.987Z,19.91
2022-08-17T17:20:11.251Z,19.90
2022-08-17T17:24:36.856Z,19.88
2022-08-17T17:28:56.971Z,19.83
2022-08-17T17:33:29.772Z,19.82
2022-08-17T17:37:38.012Z,19.82
2022-08-17T17:41:54.069Z,19.83
2022-08-17T17:46:26.580Z,19.85
2022-08-17T17:50:34.628Z,19.85
2022-08-17T17:55:01.055Z,19.86
2022-08-17T17:59:18.516Z,19.87
2022-08-17T18:03:46.145Z,19.88
2022-08-17T18:07:59.204Z,19.88
2022-08-17T18:12:11.236Z,19.85
2022-08-17T18:16:14.400Z,19.84
2022-08-17T18:20:35.934Z,19.81
2022-08-17T18:24:57.160Z,19.77
2022-08-17T18:29:00.458Z,19.74
2022-08-17T18:33:23.680Z,19.75
2022-08-17T18:37:36.031Z,19.75
2022-08-17T18:41:47.014Z,19.72
2022-08-17T18:45:52.185Z,19.67
2022-08-17T18:50:27.384Z,19.67
2022-08-17T18:54:29.072Z,19.64
2022-08-17T18:58:30.789Z,19.59
2022-08-17T19:02:45.270Z,19.58
2022-08-17T19:07:03.507Z,19.57
2022-08-17T19:11:16.834Z,19.57
2022-08-17T19:15:30.094Z,19.55
2022-08-17T19:19:49.329Z,19.50
2022-08-17T19:24:01.365Z,19.48
2022-08-17T19:28:15.397Z,19.46
2022-08-17T19:32:32.069Z,19.44
2022-08-17T19:36:52.926Z,19.42
2022-08-17T19:41:06.704Z,19.41
2022-08-17T19:45:08.371Z,19.40
2022-08-17T19:49:22.666Z,19.42
2022-08-17T19:54:05.790Z,19.41
2022-08-17T19:58:17.954Z,19.38
2022-08-17T20:02:42.526Z,19.41
2022-08-17T20:06:49.232Z,19.45
2022-08-17T20:10:57.004Z,19.49
2022-08-17T20:15:04.892Z,19.50
2022-08-17T20:19:32.771Z,19.48
2022-08-17T20:23:59.811Z,19.51
2022-08-17T20:28:29.569Z,19.50
2022-08-17T20:32:55.344Z,19.49
2022-08-17T20:37:08.783Z,19.45
2022-08-17T20:41:20.956Z,19.44
2022-08-17T20:45:26.168Z,19.41
2022-08-17T20:49:45.670Z,19.36
2022-08-17T20:53:47.211Z,19.34
2022-08-17T20:57:49.024Z,19.33
2022-08-17T21:02:20.675Z,19.30
2022-08-17T21:06:25.027Z,19.29
2022-08-17T21:10:26.539Z,19.28
2022-08-17T21:14:58.644Z,19.31
2022-08-17T21:19:09.867Z,19.31
2022-08-17T21:23:21.066Z,19.30
2022-08-17T21:28:00.531Z,19.30
2022-08-17T21:32:05.418Z,19.29
2022-08-17T21:36:15.151Z,19.26
2022-08-17T21:40:27.132Z,19.23
2022-08-17T21:44:35.185Z,19.20
2022-08-17T21:48:49.296Z,19.19
2022-08-17T21:52:57.209Z,19.16
2022-08-17T21:57:02.310Z,19.16
2022-08-17T22:01:19.389Z,19.14
2022-08-17T22:05:30.513Z,19.08
2022-08-17T22:09:40.404Z,19.06
2022-08-17T22:13:42.044Z,19.05
2022-08-17T22:17:46.759Z,19.04
2022-08-17T22:22:03.253Z,19.03
2022-08-17T22:26:09.680Z,19.01
2022-08-17T22:30:31.996Z,18.99
2022-08-17T22:34:33.662Z,18.98
2022-08-17T22:38:35.652Z,19.01
2022-08-17T22:42:49.716Z,19.01
2022-08-17T22:46:54.456Z,18.98
2022-08-17T22:51:12.469Z,18.96
2022-08-17T22:55:36.267Z,18.96
2022-08-17T22:59:41.489Z,18.95
2022-08-17T23:03:54.715Z,18.96
2022-08-17T23:07:56.376Z,18.95
2022-08-17T23:11:58.780Z,18.95
2022-08-17T23:16:00.498Z,18.95
2022-08-17T23:20:02.778Z,18.96
2022-08-17T23:24:08.786Z,18.98
2022-08-17T23:28:11.334Z,18.99
2022-08-17T23:32:15.826Z,18.99
2022-08-17T23:36:17.548Z,18.96
2022-08-17T23:40:19.226Z,18.95
2022-08-17T23:44:24.294Z,18.94
2022-08-17T23:48:34.961Z,18.94
2022-08-17T23:52:41.236Z,18.93
2022-08-17T23:56:48.405Z,18.93
